sensor_id;sensor_type;location;lat;lon;timestamp;P1;durP1;ratioP1;P2;durP2;ratioP2
24859;SDS011;12936;52.006;4.350;2023-05-24T00:01:20;11.70;;;2.80;;
24859;SDS011;12936;52.006;4.350;2023-05-24T00:03:51;16.47;;;3.03;;
24859;SDS011;12936;52.006;4.350;2023-05-24T00:06:19;12.27;;;2.80;;
24859;SDS011;12936;52.006;4.350;2023-05-24T00:08:48;14.80;;;2.90;;
24859;SDS011;12936;52.006;4.350;2023-05-24T00:11:17;13.13;;;2.73;;
24859;SDS011;12936;52.006;4.350;2023-05-24T00:13:45;19.30;;;2.90;;
24859;SDS011;12936;52.006;4.350;2023-05-24T00:16:13;11.20;;;2.37;;
24859;SDS011;12936;52.006;4.350;2023-05-24T00:18:41;14.80;;;2.90;;
24859;SDS011;12936;52.006;4.350;2023-05-24T00:21:12;18.90;;;2.80;;
24859;SDS011;12936;52.006;4.350;2023-05-24T00:23:41;18.47;;;3.53;;
24859;SDS011;12936;52.006;4.350;2023-05-24T00:26:10;12.57;;;2.80;;
24859;SDS011;12936;52.006;4.350;2023-05-24T00:28:38;9.93;;;2.53;;
24859;SDS011;12936;52.006;4.350;2023-05-24T00:31:06;12.73;;;2.63;;
24859;SDS011;12936;52.006;4.350;2023-05-24T00:33:35;12.03;;;2.67;;
24859;SDS011;12936;52.006;4.350;2023-05-24T00:36:03;9.60;;;2.67;;
24859;SDS011;12936;52.006;4.350;2023-05-24T00:38:33;13.83;;;2.83;;
24859;SDS011;12936;52.006;4.350;2023-05-24T00:41:02;12.70;;;2.70;;
24859;SDS011;12936;52.006;4.350;2023-05-24T00:43:34;14.63;;;2.97;;
24859;SDS011;12936;52.006;4.350;2023-05-24T00:46:14;17.93;;;3.20;;
24859;SDS011;12936;52.006;4.350;2023-05-24T00:48:45;12.87;;;3.00;;
24859;SDS011;12936;52.006;4.350;2023-05-24T00:51:16;13.40;;;2.70;;
24859;SDS011;12936;52.006;4.350;2023-05-24T00:53:48;15.87;;;3.10;;
24859;SDS011;12936;52.006;4.350;2023-05-24T00:56:39;13.27;;;2.63;;
24859;SDS011;12936;52.006;4.350;2023-05-24T00:59:09;14.60;;;2.80;;
24859;SDS011;12936;52.006;4.350;2023-05-24T01:01:38;15.53;;;2.93;;
24859;SDS011;12936;52.006;4.350;2023-05-24T01:04:07;14.40;;;3.00;;
24859;SDS011;12936;52.006;4.350;2023-05-24T01:06:37;11.60;;;2.70;;
24859;SDS011;12936;52.006;4.350;2023-05-24T01:09:20;12.07;;;2.43;;
24859;SDS011;12936;52.006;4.350;2023-05-24T01:11:59;9.90;;;2.47;;
24859;SDS011;12936;52.006;4.350;2023-05-24T01:14:37;11.10;;;2.27;;
24859;SDS011;12936;52.006;4.350;2023-05-24T01:17:20;13.87;;;3.03;;
24859;SDS011;12936;52.006;4.350;2023-05-24T01:19:55;15.53;;;2.90;;
24859;SDS011;12936;52.006;4.350;2023-05-24T01:22:36;13.23;;;2.93;;
24859;SDS011;12936;52.006;4.350;2023-05-24T01:25:18;10.63;;;2.93;;
24859;SDS011;12936;52.006;4.350;2023-05-24T01:28:00;12.43;;;3.33;;
24859;SDS011;12936;52.006;4.350;2023-05-24T01:30:34;11.17;;;2.70;;
24859;SDS011;12936;52.006;4.350;2023-05-24T01:33:08;15.00;;;3.50;;
24859;SDS011;12936;52.006;4.350;2023-05-24T01:35:39;11.60;;;2.87;;
24859;SDS011;12936;52.006;4.350;2023-05-24T01:38:15;11.53;;;3.20;;
24859;SDS011;12936;52.006;4.350;2023-05-24T01:41:20;15.03;;;3.40;;
24859;SDS011;12936;52.006;4.350;2023-05-24T01:44:06;14.30;;;3.70;;
24859;SDS011;12936;52.006;4.350;2023-05-24T01:46:42;13.00;;;3.27;;
24859;SDS011;12936;52.006;4.350;2023-05-24T01:49:33;10.67;;;3.23;;
24859;SDS011;12936;52.006;4.350;2023-05-24T01:52:10;10.43;;;3.20;;
24859;SDS011;12936;52.006;4.350;2023-05-24T01:54:44;9.87;;;3.07;;
24859;SDS011;12936;52.006;4.350;2023-05-24T01:57:19;9.07;;;2.90;;
24859;SDS011;12936;52.006;4.350;2023-05-24T01:59:50;12.53;;;3.60;;
24859;SDS011;12936;52.006;4.350;2023-05-24T02:02:19;14.93;;;3.00;;
24859;SDS011;12936;52.006;4.350;2023-05-24T02:04:47;11.67;;;3.73;;
24859;SDS011;12936;52.006;4.350;2023-05-24T02:07:16;15.33;;;3.27;;
24859;SDS011;12936;52.006;4.350;2023-05-24T02:09:44;12.77;;;2.83;;
24859;SDS011;12936;52.006;4.350;2023-05-24T02:12:12;13.77;;;3.40;;
24859;SDS011;12936;52.006;4.350;2023-05-24T02:14:42;13.50;;;3.20;;
24859;SDS011;12936;52.006;4.350;2023-05-24T02:17:18;9.43;;;2.90;;
24859;SDS011;12936;52.006;4.350;2023-05-24T02:19:51;13.97;;;3.50;;
24859;SDS011;12936;52.006;4.350;2023-05-24T02:22:22;14.20;;;3.50;;
24859;SDS011;12936;52.006;4.350;2023-05-24T02:24:53;11.30;;;3.33;;
24859;SDS011;12936;52.006;4.350;2023-05-24T02:27:24;13.00;;;2.87;;
24859;SDS011;12936;52.006;4.350;2023-05-24T02:29:53;17.03;;;3.33;;
24859;SDS011;12936;52.006;4.350;2023-05-24T02:32:24;15.93;;;3.27;;
24859;SDS011;12936;52.006;4.350;2023-05-24T02:34:52;13.70;;;3.30;;
24859;SDS011;12936;52.006;4.350;2023-05-24T02:37:21;8.90;;;3.00;;
24859;SDS011;12936;52.006;4.350;2023-05-24T02:39:57;19.20;;;3.30;;
24859;SDS011;12936;52.006;4.350;2023-05-24T02:42:47;18.03;;;3.60;;
24859;SDS011;12936;52.006;4.350;2023-05-24T02:45:16;9.17;;;3.03;;
24859;SDS011;12936;52.006;4.350;2023-05-24T02:47:45;11.83;;;3.20;;
24859;SDS011;12936;52.006;4.350;2023-05-24T02:50:13;10.37;;;3.00;;
24859;SDS011;12936;52.006;4.350;2023-05-24T02:52:41;14.33;;;3.30;;
24859;SDS011;12936;52.006;4.350;2023-05-24T02:55:09;11.77;;;3.13;;
24859;SDS011;12936;52.006;4.350;2023-05-24T02:57:37;9.60;;;2.90;;
24859;SDS011;12936;52.006;4.350;2023-05-24T03:00:07;16.13;;;3.20;;
24859;SDS011;12936;52.006;4.350;2023-05-24T03:02:37;17.93;;;3.90;;
24859;SDS011;12936;52.006;4.350;2023-05-24T03:05:09;13.67;;;3.70;;
24859;SDS011;12936;52.006;4.350;2023-05-24T03:07:38;12.17;;;3.43;;
24859;SDS011;12936;52.006;4.350;2023-05-24T03:10:08;13.17;;;3.33;;
24859;SDS011;12936;52.006;4.350;2023-05-24T03:12:40;11.33;;;3.70;;
24859;SDS011;12936;52.006;4.350;2023-05-24T03:15:08;15.13;;;3.70;;
24859;SDS011;12936;52.006;4.350;2023-05-24T03:17:38;11.40;;;3.40;;
24859;SDS011;12936;52.006;4.350;2023-05-24T03:20:07;12.57;;;3.80;;
24859;SDS011;12936;52.006;4.350;2023-05-24T03:22:38;10.07;;;3.20;;
24859;SDS011;12936;52.006;4.350;2023-05-24T03:25:06;9.60;;;3.40;;
24859;SDS011;12936;52.006;4.350;2023-05-24T03:27:35;12.27;;;3.90;;
24859;SDS011;12936;52.006;4.350;2023-05-24T03:30:08;12.30;;;3.67;;
24859;SDS011;12936;52.006;4.350;2023-05-24T03:32:47;10.23;;;3.43;;
24859;SDS011;12936;52.006;4.350;2023-05-24T03:35:16;17.40;;;3.60;;
24859;SDS011;12936;52.006;4.350;2023-05-24T03:38:08;9.60;;;3.03;;
24859;SDS011;12936;52.006;4.350;2023-05-24T03:40:38;13.83;;;3.77;;
24859;SDS011;12936;52.006;4.350;2023-05-24T03:43:07;13.20;;;3.47;;
24859;SDS011;12936;52.006;4.350;2023-05-24T03:45:35;13.77;;;3.27;;
24859;SDS011;12936;52.006;4.350;2023-05-24T03:48:05;10.77;;;3.50;;
24859;SDS011;12936;52.006;4.350;2023-05-24T03:50:33;22.37;;;3.53;;
24859;SDS011;12936;52.006;4.350;2023-05-24T03:53:01;14.50;;;3.10;;
24859;SDS011;12936;52.006;4.350;2023-05-24T03:55:31;14.00;;;4.10;;
24859;SDS011;12936;52.006;4.350;2023-05-24T03:57:59;10.43;;;3.07;;
24859;SDS011;12936;52.006;4.350;2023-05-24T04:00:27;9.10;;;3.13;;
24859;SDS011;12936;52.006;4.350;2023-05-24T04:03:00;15.03;;;3.33;;
24859;SDS011;12936;52.006;4.350;2023-05-24T04:05:32;14.43;;;3.73;;
24859;SDS011;12936;52.006;4.350;2023-05-24T04:08:10;12.90;;;3.20;;
24859;SDS011;12936;52.006;4.350;2023-05-24T04:10:43;14.87;;;3.50;;
24859;SDS011;12936;52.006;4.350;2023-05-24T04:13:14;16.77;;;3.60;;
24859;SDS011;12936;52.006;4.350;2023-05-24T04:15:42;14.97;;;3.43;;
24859;SDS011;12936;52.006;4.350;2023-05-24T04:18:10;13.83;;;3.13;;
24859;SDS011;12936;52.006;4.350;2023-05-24T04:20:48;15.43;;;3.70;;
24859;SDS011;12936;52.006;4.350;2023-05-24T04:23:24;16.07;;;3.27;;
24859;SDS011;12936;52.006;4.350;2023-05-24T04:25:57;14.20;;;3.43;;
24859;SDS011;12936;52.006;4.350;2023-05-24T04:28:26;16.57;;;3.63;;
24859;SDS011;12936;52.006;4.350;2023-05-24T04:30:55;17.33;;;3.67;;
24859;SDS011;12936;52.006;4.350;2023-05-24T04:33:24;17.37;;;3.90;;
24859;SDS011;12936;52.006;4.350;2023-05-24T04:36:00;17.67;;;3.40;;
24859;SDS011;12936;52.006;4.350;2023-05-24T04:38:28;15.43;;;3.40;;
24859;SDS011;12936;52.006;4.350;2023-05-24T04:41:02;13.53;;;3.77;;
24859;SDS011;12936;52.006;4.350;2023-05-24T04:43:33;20.13;;;3.63;;
24859;SDS011;12936;52.006;4.350;2023-05-24T04:46:01;10.93;;;3.60;;
24859;SDS011;12936;52.006;4.350;2023-05-24T04:48:35;16.00;;;3.80;;
24859;SDS011;12936;52.006;4.350;2023-05-24T04:51:25;17.93;;;4.13;;
24859;SDS011;12936;52.006;4.350;2023-05-24T04:53:58;13.13;;;4.03;;
24859;SDS011;12936;52.006;4.350;2023-05-24T04:56:32;17.37;;;3.37;;
24859;SDS011;12936;52.006;4.350;2023-05-24T04:59:04;19.13;;;3.87;;
24859;SDS011;12936;52.006;4.350;2023-05-24T05:01:37;20.03;;;3.33;;
24859;SDS011;12936;52.006;4.350;2023-05-24T05:04:12;17.60;;;3.87;;
24859;SDS011;12936;52.006;4.350;2023-05-24T05:06:43;15.97;;;3.40;;
24859;SDS011;12936;52.006;4.350;2023-05-24T05:09:12;18.07;;;3.77;;
24859;SDS011;12936;52.006;4.350;2023-05-24T05:11:47;16.90;;;3.40;;
24859;SDS011;12936;52.006;4.350;2023-05-24T05:14:15;21.67;;;6.17;;
24859;SDS011;12936;52.006;4.350;2023-05-24T05:16:44;14.73;;;3.00;;
24859;SDS011;12936;52.006;4.350;2023-05-24T05:19:15;10.17;;;2.90;;
24859;SDS011;12936;52.006;4.350;2023-05-24T05:21:43;18.20;;;3.00;;
24859;SDS011;12936;52.006;4.350;2023-05-24T05:24:11;17.23;;;3.53;;
24859;SDS011;12936;52.006;4.350;2023-05-24T05:26:41;18.70;;;3.37;;
24859;SDS011;12936;52.006;4.350;2023-05-24T05:29:12;14.73;;;3.13;;
24859;SDS011;12936;52.006;4.350;2023-05-24T05:31:41;16.00;;;3.00;;
24859;SDS011;12936;52.006;4.350;2023-05-24T05:34:09;17.63;;;3.17;;
24859;SDS011;12936;52.006;4.350;2023-05-24T05:36:37;12.10;;;2.83;;
24859;SDS011;12936;52.006;4.350;2023-05-24T05:39:06;12.67;;;2.90;;
24859;SDS011;12936;52.006;4.350;2023-05-24T05:41:36;12.60;;;3.10;;
24859;SDS011;12936;52.006;4.350;2023-05-24T05:44:06;15.30;;;3.30;;
24859;SDS011;12936;52.006;4.350;2023-05-24T05:46:34;10.60;;;2.70;;
24859;SDS011;12936;52.006;4.350;2023-05-24T05:49:06;13.67;;;3.20;;
24859;SDS011;12936;52.006;4.350;2023-05-24T05:51:36;8.10;;;2.70;;
24859;SDS011;12936;52.006;4.350;2023-05-24T05:54:05;22.07;;;3.80;;
24859;SDS011;12936;52.006;4.350;2023-05-24T05:57:00;16.30;;;3.20;;
24859;SDS011;12936;52.006;4.350;2023-05-24T05:59:34;18.03;;;3.00;;
24859;SDS011;12936;52.006;4.350;2023-05-24T06:02:03;17.83;;;3.10;;
24859;SDS011;12936;52.006;4.350;2023-05-24T06:04:33;16.80;;;2.77;;
24859;SDS011;12936;52.006;4.350;2023-05-24T06:07:01;14.60;;;3.00;;
24859;SDS011;12936;52.006;4.350;2023-05-24T06:09:29;14.80;;;2.93;;
24859;SDS011;12936;52.006;4.350;2023-05-24T06:11:57;14.93;;;3.03;;
24859;SDS011;12936;52.006;4.350;2023-05-24T06:14:25;11.90;;;3.07;;
24859;SDS011;12936;52.006;4.350;2023-05-24T06:16:55;13.30;;;2.90;;
24859;SDS011;12936;52.006;4.350;2023-05-24T06:19:25;12.27;;;3.63;;
24859;SDS011;12936;52.006;4.350;2023-05-24T06:21:54;11.53;;;2.67;;
24859;SDS011;12936;52.006;4.350;2023-05-24T06:24:23;20.13;;;3.43;;
24859;SDS011;12936;52.006;4.350;2023-05-24T06:26:51;12.97;;;2.53;;
24859;SDS011;12936;52.006;4.350;2023-05-24T06:29:23;12.23;;;2.73;;
24859;SDS011;12936;52.006;4.350;2023-05-24T06:31:52;11.33;;;3.10;;
24859;SDS011;12936;52.006;4.350;2023-05-24T06:34:22;15.73;;;3.17;;
24859;SDS011;12936;52.006;4.350;2023-05-24T06:36:51;14.83;;;3.27;;
24859;SDS011;12936;52.006;4.350;2023-05-24T06:39:19;14.30;;;2.73;;
24859;SDS011;12936;52.006;4.350;2023-05-24T06:41:50;14.07;;;2.97;;
24859;SDS011;12936;52.006;4.350;2023-05-24T06:44:19;16.03;;;3.10;;
24859;SDS011;12936;52.006;4.350;2023-05-24T06:46:50;14.87;;;3.20;;
24859;SDS011;12936;52.006;4.350;2023-05-24T06:49:19;10.50;;;2.77;;
24859;SDS011;12936;52.006;4.350;2023-05-24T06:51:51;13.17;;;3.23;;
24859;SDS011;12936;52.006;4.350;2023-05-24T06:54:27;16.97;;;3.37;;
24859;SDS011;12936;52.006;4.350;2023-05-24T06:57:04;16.33;;;3.47;;
24859;SDS011;12936;52.006;4.350;2023-05-24T06:59:33;13.70;;;3.00;;
24859;SDS011;12936;52.006;4.350;2023-05-24T07:02:01;19.27;;;3.30;;
24859;SDS011;12936;52.006;4.350;2023-05-24T07:04:30;11.77;;;2.63;;
24859;SDS011;12936;52.006;4.350;2023-05-24T07:07:00;13.03;;;3.07;;
24859;SDS011;12936;52.006;4.350;2023-05-24T07:09:28;14.03;;;2.93;;
24859;SDS011;12936;52.006;4.350;2023-05-24T07:11:56;14.33;;;2.77;;
24859;SDS011;12936;52.006;4.350;2023-05-24T07:14:27;12.27;;;2.43;;
24859;SDS011;12936;52.006;4.350;2023-05-24T07:16:56;12.57;;;2.73;;
24859;SDS011;12936;52.006;4.350;2023-05-24T07:19:25;16.57;;;3.30;;
24859;SDS011;12936;52.006;4.350;2023-05-24T07:21:56;16.63;;;2.40;;
24859;SDS011;12936;52.006;4.350;2023-05-24T07:24:27;9.17;;;2.60;;
24859;SDS011;12936;52.006;4.350;2023-05-24T07:26:55;8.73;;;2.37;;
24859;SDS011;12936;52.006;4.350;2023-05-24T07:29:24;12.37;;;3.00;;
24859;SDS011;12936;52.006;4.350;2023-05-24T07:31:53;12.90;;;2.63;;
24859;SDS011;12936;52.006;4.350;2023-05-24T07:34:23;14.02;;;2.15;;
24859;SDS011;12936;52.006;4.350;2023-05-24T07:36:55;11.07;;;2.30;;
24859;SDS011;12936;52.006;4.350;2023-05-24T07:39:27;14.97;;;2.60;;
24859;SDS011;12936;52.006;4.350;2023-05-24T07:41:55;13.50;;;2.80;;
24859;SDS011;12936;52.006;4.350;2023-05-24T07:44:23;11.05;;;1.95;;
24859;SDS011;12936;52.006;4.350;2023-05-24T07:46:54;8.50;;;2.63;;
24859;SDS011;12936;52.006;4.350;2023-05-24T07:49:26;7.60;;;2.00;;
24859;SDS011;12936;52.006;4.350;2023-05-24T07:51:56;9.67;;;2.37;;
24859;SDS011;12936;52.006;4.350;2023-05-24T07:54:28;11.03;;;2.13;;
24859;SDS011;12936;52.006;4.350;2023-05-24T07:57:00;15.77;;;3.10;;
24859;SDS011;12936;52.006;4.350;2023-05-24T07:59:32;12.00;;;2.25;;
24859;SDS011;12936;52.006;4.350;2023-05-24T08:02:04;17.25;;;2.53;;
24859;SDS011;12936;52.006;4.350;2023-05-24T08:04:38;14.20;;;2.43;;
24859;SDS011;12936;52.006;4.350;2023-05-24T08:07:27;11.60;;;2.80;;
24859;SDS011;12936;52.006;4.350;2023-05-24T08:09:59;8.93;;;2.40;;
24859;SDS011;12936;52.006;4.350;2023-05-24T08:12:29;10.27;;;2.40;;
24859;SDS011;12936;52.006;4.350;2023-05-24T08:15:20;13.97;;;2.63;;
24859;SDS011;12936;52.006;4.350;2023-05-24T08:17:48;12.00;;;2.30;;
24859;SDS011;12936;52.006;4.350;2023-05-24T08:20:16;11.77;;;2.83;;
24859;SDS011;12936;52.006;4.350;2023-05-24T08:22:44;9.43;;;3.00;;
24859;SDS011;12936;52.006;4.350;2023-05-24T08:25:15;11.88;;;2.33;;
24859;SDS011;12936;52.006;4.350;2023-05-24T08:27:43;9.73;;;2.83;;
24859;SDS011;12936;52.006;4.350;2023-05-24T08:30:11;10.30;;;2.17;;
24859;SDS011;12936;52.006;4.350;2023-05-24T08:32:42;9.65;;;2.60;;
24859;SDS011;12936;52.006;4.350;2023-05-24T08:35:10;11.13;;;2.88;;
24859;SDS011;12936;52.006;4.350;2023-05-24T08:37:47;10.88;;;2.80;;
24859;SDS011;12936;52.006;4.350;2023-05-24T08:40:16;9.43;;;2.50;;
24859;SDS011;12936;52.006;4.350;2023-05-24T08:42:45;12.10;;;2.70;;
24859;SDS011;12936;52.006;4.350;2023-05-24T08:45:15;12.57;;;2.67;;
24859;SDS011;12936;52.006;4.350;2023-05-24T08:47:45;12.83;;;2.73;;
24859;SDS011;12936;52.006;4.350;2023-05-24T08:50:18;11.27;;;2.70;;
24859;SDS011;12936;52.006;4.350;2023-05-24T08:52:47;13.33;;;2.63;;
24859;SDS011;12936;52.006;4.350;2023-05-24T08:55:17;19.43;;;3.00;;
24859;SDS011;12936;52.006;4.350;2023-05-24T08:57:46;10.10;;;2.60;;
24859;SDS011;12936;52.006;4.350;2023-05-24T09:00:21;7.97;;;2.60;;
24859;SDS011;12936;52.006;4.350;2023-05-24T09:02:50;11.63;;;3.33;;
24859;SDS011;12936;52.006;4.350;2023-05-24T09:05:20;11.68;;;2.40;;
24859;SDS011;12936;52.006;4.350;2023-05-24T09:07:48;10.17;;;2.37;;
24859;SDS011;12936;52.006;4.350;2023-05-24T09:10:19;9.02;;;2.38;;
24859;SDS011;12936;52.006;4.350;2023-05-24T09:12:50;13.90;;;2.57;;
24859;SDS011;12936;52.006;4.350;2023-05-24T09:15:22;8.53;;;2.57;;
24859;SDS011;12936;52.006;4.350;2023-05-24T09:17:51;10.85;;;2.58;;
24859;SDS011;12936;52.006;4.350;2023-05-24T09:20:19;12.63;;;2.40;;
24859;SDS011;12936;52.006;4.350;2023-05-24T09:22:49;12.57;;;2.65;;
24859;SDS011;12936;52.006;4.350;2023-05-24T09:25:19;5.45;;;1.90;;
24859;SDS011;12936;52.006;4.350;2023-05-24T09:27:48;9.57;;;2.13;;
24859;SDS011;12936;52.006;4.350;2023-05-24T09:30:17;12.57;;;2.50;;
24859;SDS011;12936;52.006;4.350;2023-05-24T09:32:52;11.57;;;2.10;;
24859;SDS011;12936;52.006;4.350;2023-05-24T09:35:22;6.53;;;1.80;;
24859;SDS011;12936;52.006;4.350;2023-05-24T09:37:55;12.32;;;2.92;;
24859;SDS011;12936;52.006;4.350;2023-05-24T09:40:27;11.43;;;2.13;;
24859;SDS011;12936;52.006;4.350;2023-05-24T09:43:01;10.45;;;2.38;;
24859;SDS011;12936;52.006;4.350;2023-05-24T09:45:31;8.70;;;2.30;;
24859;SDS011;12936;52.006;4.350;2023-05-24T09:48:02;13.75;;;2.53;;
24859;SDS011;12936;52.006;4.350;2023-05-24T09:50:30;8.70;;;2.42;;
24859;SDS011;12936;52.006;4.350;2023-05-24T09:52:58;10.97;;;2.10;;
24859;SDS011;12936;52.006;4.350;2023-05-24T09:55:31;11.95;;;2.55;;
24859;SDS011;12936;52.006;4.350;2023-05-24T09:58:04;8.20;;;2.10;;
24859;SDS011;12936;52.006;4.350;2023-05-24T10:00:37;6.80;;;1.95;;
24859;SDS011;12936;52.006;4.350;2023-05-24T10:03:07;10.82;;;2.25;;
24859;SDS011;12936;52.006;4.350;2023-05-24T10:05:41;14.27;;;2.42;;
24859;SDS011;12936;52.006;4.350;2023-05-24T10:08:11;12.83;;;2.40;;
24859;SDS011;12936;52.006;4.350;2023-05-24T10:10:41;7.32;;;2.10;;
24859;SDS011;12936;52.006;4.350;2023-05-24T10:13:10;8.40;;;2.00;;
24859;SDS011;12936;52.006;4.350;2023-05-24T10:15:41;10.20;;;2.55;;
24859;SDS011;12936;52.006;4.350;2023-05-24T10:18:10;7.45;;;2.28;;
24859;SDS011;12936;52.006;4.350;2023-05-24T10:21:02;9.00;;;1.95;;
24859;SDS011;12936;52.006;4.350;2023-05-24T10:23:35;8.20;;;2.10;;
24859;SDS011;12936;52.006;4.350;2023-05-24T10:26:07;10.95;;;2.17;;
24859;SDS011;12936;52.006;4.350;2023-05-24T10:28:37;7.65;;;2.35;;
24859;SDS011;12936;52.006;4.350;2023-05-24T10:31:10;7.47;;;2.05;;
24859;SDS011;12936;52.006;4.350;2023-05-24T10:33:43;21.10;;;2.55;;
24859;SDS011;12936;52.006;4.350;2023-05-24T10:36:17;8.45;;;2.20;;
24859;SDS011;12936;52.006;4.350;2023-05-24T10:38:45;10.00;;;2.05;;
24859;SDS011;12936;52.006;4.350;2023-05-24T10:41:16;9.35;;;2.20;;
24859;SDS011;12936;52.006;4.350;2023-05-24T10:43:45;7.30;;;2.13;;
24859;SDS011;12936;52.006;4.350;2023-05-24T10:46:35;12.25;;;2.15;;
24859;SDS011;12936;52.006;4.350;2023-05-24T10:49:34;7.97;;;2.00;;
24859;SDS011;12936;52.006;4.350;2023-05-24T10:52:05;9.50;;;2.58;;
24859;SDS011;12936;52.006;4.350;2023-05-24T10:54:35;12.63;;;2.10;;
24859;SDS011;12936;52.006;4.350;2023-05-24T10:57:22;11.90;;;2.00;;
24859;SDS011;12936;52.006;4.350;2023-05-24T10:59:56;11.63;;;2.42;;
24859;SDS011;12936;52.006;4.350;2023-05-24T11:02:28;8.52;;;2.08;;
24859;SDS011;12936;52.006;4.350;2023-05-24T11:05:03;11.68;;;2.35;;
24859;SDS011;12936;52.006;4.350;2023-05-24T11:07:39;10.13;;;2.47;;
24859;SDS011;12936;52.006;4.350;2023-05-24T11:10:28;7.30;;;1.92;;
24859;SDS011;12936;52.006;4.350;2023-05-24T11:13:06;5.88;;;1.67;;
24859;SDS011;12936;52.006;4.350;2023-05-24T11:15:48;7.65;;;1.92;;
24859;SDS011;12936;52.006;4.350;2023-05-24T11:18:40;16.65;;;2.53;;
24859;SDS011;12936;52.006;4.350;2023-05-24T11:21:22;8.85;;;1.67;;
24859;SDS011;12936;52.006;4.350;2023-05-24T11:23:53;6.03;;;1.48;;
24859;SDS011;12936;52.006;4.350;2023-05-24T11:26:22;7.28;;;1.77;;
24859;SDS011;12936;52.006;4.350;2023-05-24T11:28:52;6.50;;;2.05;;
24859;SDS011;12936;52.006;4.350;2023-05-24T11:31:25;6.70;;;2.00;;
24859;SDS011;12936;52.006;4.350;2023-05-24T11:33:54;10.35;;;1.98;;
24859;SDS011;12936;52.006;4.350;2023-05-24T11:36:25;7.85;;;2.10;;
24859;SDS011;12936;52.006;4.350;2023-05-24T11:38:53;7.60;;;1.88;;
24859;SDS011;12936;52.006;4.350;2023-05-24T11:41:26;4.63;;;1.75;;
24859;SDS011;12936;52.006;4.350;2023-05-24T11:43:59;6.40;;;1.77;;
24859;SDS011;12936;52.006;4.350;2023-05-24T11:46:30;6.57;;;1.80;;
24859;SDS011;12936;52.006;4.350;2023-05-24T11:49:01;7.28;;;2.05;;
24859;SDS011;12936;52.006;4.350;2023-05-24T11:51:33;6.80;;;1.92;;
24859;SDS011;12936;52.006;4.350;2023-05-24T11:54:03;6.28;;;1.65;;
24859;SDS011;12936;52.006;4.350;2023-05-24T11:56:31;6.18;;;1.88;;
24859;SDS011;12936;52.006;4.350;2023-05-24T11:59:05;6.95;;;1.77;;
24859;SDS011;12936;52.006;4.350;2023-05-24T12:01:38;6.75;;;2.20;;
24859;SDS011;12936;52.006;4.350;2023-05-24T12:04:08;7.70;;;1.80;;
24859;SDS011;12936;52.006;4.350;2023-05-24T12:06:38;9.15;;;2.40;;
24859;SDS011;12936;52.006;4.350;2023-05-24T12:09:07;9.65;;;2.00;;
24859;SDS011;12936;52.006;4.350;2023-05-24T12:11:42;6.80;;;2.15;;
24859;SDS011;12936;52.006;4.350;2023-05-24T12:14:17;10.40;;;2.55;;
24859;SDS011;12936;52.006;4.350;2023-05-24T12:16:46;10.00;;;2.40;;
24859;SDS011;12936;52.006;4.350;2023-05-24T12:19:15;8.50;;;2.17;;
24859;SDS011;12936;52.006;4.350;2023-05-24T12:21:59;13.02;;;3.05;;
24859;SDS011;12936;52.006;4.350;2023-05-24T12:24:30;11.05;;;2.45;;
24859;SDS011;12936;52.006;4.350;2023-05-24T12:27:01;14.27;;;2.40;;
24859;SDS011;12936;52.006;4.350;2023-05-24T12:29:53;7.35;;;2.25;;
24859;SDS011;12936;52.006;4.350;2023-05-24T12:32:22;9.02;;;2.42;;
24859;SDS011;12936;52.006;4.350;2023-05-24T12:34:51;6.95;;;2.25;;
24859;SDS011;12936;52.006;4.350;2023-05-24T12:37:20;12.00;;;2.40;;
24859;SDS011;12936;52.006;4.350;2023-05-24T12:39:49;10.20;;;2.40;;
24859;SDS011;12936;52.006;4.350;2023-05-24T12:42:21;8.05;;;2.42;;
24859;SDS011;12936;52.006;4.350;2023-05-24T12:44:50;11.98;;;2.05;;
24859;SDS011;12936;52.006;4.350;2023-05-24T12:47:21;9.38;;;2.40;;
24859;SDS011;12936;52.006;4.350;2023-05-24T12:49:49;10.65;;;2.40;;
24859;SDS011;12936;52.006;4.350;2023-05-24T12:52:18;12.68;;;2.22;;
24859;SDS011;12936;52.006;4.350;2023-05-24T12:54:46;9.18;;;2.88;;
24859;SDS011;12936;52.006;4.350;2023-05-24T12:57:14;10.07;;;2.80;;
24859;SDS011;12936;52.006;4.350;2023-05-24T12:59:43;12.15;;;2.40;;
24859;SDS011;12936;52.006;4.350;2023-05-24T13:02:11;8.85;;;2.42;;
24859;SDS011;12936;52.006;4.350;2023-05-24T13:04:41;8.45;;;2.35;;
24859;SDS011;12936;52.006;4.350;2023-05-24T13:07:09;11.23;;;2.55;;
24859;SDS011;12936;52.006;4.350;2023-05-24T13:09:37;8.88;;;2.20;;
24859;SDS011;12936;52.006;4.350;2023-05-24T13:12:06;9.60;;;2.30;;
24859;SDS011;12936;52.006;4.350;2023-05-24T13:14:35;10.02;;;2.75;;
24859;SDS011;12936;52.006;4.350;2023-05-24T13:17:04;7.95;;;2.10;;
24859;SDS011;12936;52.006;4.350;2023-05-24T13:19:34;10.57;;;2.60;;
24859;SDS011;12936;52.006;4.350;2023-05-24T13:22:05;9.75;;;2.38;;
24859;SDS011;12936;52.006;4.350;2023-05-24T13:24:38;9.25;;;2.72;;
24859;SDS011;12936;52.006;4.350;2023-05-24T13:27:08;9.35;;;2.53;;
24859;SDS011;12936;52.006;4.350;2023-05-24T13:29:37;9.70;;;2.35;;
24859;SDS011;12936;52.006;4.350;2023-05-24T13:32:25;12.90;;;2.80;;
24859;SDS011;12936;52.006;4.350;2023-05-24T13:34:54;8.45;;;2.55;;
24859;SDS011;12936;52.006;4.350;2023-05-24T13:37:24;10.05;;;2.17;;
24859;SDS011;12936;52.006;4.350;2023-05-24T13:39:52;8.82;;;2.47;;
24859;SDS011;12936;52.006;4.350;2023-05-24T13:42:21;14.18;;;3.00;;
24859;SDS011;12936;52.006;4.350;2023-05-24T13:44:50;7.10;;;2.50;;
24859;SDS011;12936;52.006;4.350;2023-05-24T13:47:20;10.55;;;2.97;;
24859;SDS011;12936;52.006;4.350;2023-05-24T13:50:04;10.93;;;2.28;;
24859;SDS011;12936;52.006;4.350;2023-05-24T13:52:35;9.60;;;2.40;;
24859;SDS011;12936;52.006;4.350;2023-05-24T13:55:04;11.05;;;2.65;;
24859;SDS011;12936;52.006;4.350;2023-05-24T13:57:33;7.60;;;2.85;;
24859;SDS011;12936;52.006;4.350;2023-05-24T14:00:17;10.55;;;2.53;;
24859;SDS011;12936;52.006;4.350;2023-05-24T14:02:47;14.20;;;2.70;;
24859;SDS011;12936;52.006;4.350;2023-05-24T14:05:17;13.75;;;2.38;;
24859;SDS011;12936;52.006;4.350;2023-05-24T14:07:50;8.60;;;2.40;;
24859;SDS011;12936;52.006;4.350;2023-05-24T14:10:21;10.98;;;2.63;;
24859;SDS011;12936;52.006;4.350;2023-05-24T14:12:51;12.68;;;2.80;;
24859;SDS011;12936;52.006;4.350;2023-05-24T14:15:42;8.85;;;2.33;;
24859;SDS011;12936;52.006;4.350;2023-05-24T14:18:12;8.55;;;2.42;;
24859;SDS011;12936;52.006;4.350;2023-05-24T14:20:42;11.32;;;2.65;;
24859;SDS011;12936;52.006;4.350;2023-05-24T14:23:13;13.90;;;3.47;;
24859;SDS011;12936;52.006;4.350;2023-05-24T14:25:42;10.30;;;2.83;;
24859;SDS011;12936;52.006;4.350;2023-05-24T14:28:12;9.15;;;2.20;;
24859;SDS011;12936;52.006;4.350;2023-05-24T14:30:40;11.07;;;2.65;;
24859;SDS011;12936;52.006;4.350;2023-05-24T14:33:09;10.07;;;2.50;;
24859;SDS011;12936;52.006;4.350;2023-05-24T14:35:39;8.20;;;2.65;;
24859;SDS011;12936;52.006;4.350;2023-05-24T14:38:08;8.57;;;2.40;;
24859;SDS011;12936;52.006;4.350;2023-05-24T14:40:39;10.45;;;2.67;;
24859;SDS011;12936;52.006;4.350;2023-05-24T14:43:07;10.23;;;2.35;;
24859;SDS011;12936;52.006;4.350;2023-05-24T14:45:37;11.68;;;2.60;;
24859;SDS011;12936;52.006;4.350;2023-05-24T14:48:08;6.40;;;2.40;;
24859;SDS011;12936;52.006;4.350;2023-05-24T14:50:40;13.55;;;2.50;;
24859;SDS011;12936;52.006;4.350;2023-05-24T14:53:08;10.95;;;2.70;;
24859;SDS011;12936;52.006;4.350;2023-05-24T14:55:42;11.60;;;2.80;;
24859;SDS011;12936;52.006;4.350;2023-05-24T14:58:11;10.60;;;2.97;;
24859;SDS011;12936;52.006;4.350;2023-05-24T15:00:40;12.10;;;2.45;;
24859;SDS011;12936;52.006;4.350;2023-05-24T15:03:10;8.95;;;2.35;;
24859;SDS011;12936;52.006;4.350;2023-05-24T15:06:00;15.25;;;2.80;;